createdAt,value
2018-08-22T04:00:35.623Z,20.00
2018-08-22T04:01:35.561Z,24.00
2018-08-22T04:02:35.564Z,20.00
2018-08-22T04:03:35.536Z,28.00
2018-08-22T04:04:35.519Z,36.00
2018-08-22T04:05:35.527Z,36.00
2018-08-22T04:06:35.512Z,36.00
2018-08-22T04:07:35.494Z,48.00
2018-08-22T04:08:35.477Z,48.00
2018-08-22T04:09:35.472Z,52.00
2018-08-22T04:10:35.453Z,64.00
2018-08-22T04:11:35.455Z,64.00
2018-08-22T04:12:35.450Z,72.00
2018-08-22T04:13:35.419Z,80.00
2018-08-22T04:14:35.407Z,84.00
2018-08-22T04:15:35.396Z,92.00
2018-08-22T04:16:35.399Z,104.00
2018-08-22T04:17:35.372Z,108.00
2018-08-22T04:18:35.362Z,120.00
2018-08-22T04:19:35.351Z,128.00
2018-08-22T04:20:35.340Z,140.00
2018-08-22T04:21:35.341Z,156.00
2018-08-22T04:22:35.318Z,164.00
2018-08-22T04:23:35.302Z,184.00
2018-08-22T04:24:35.292Z,204.00
2018-08-22T04:25:35.286Z,220.00
2018-08-22T04:26:35.299Z,240.00
2018-08-22T04:27:35.261Z,256.00
2018-08-22T04:28:35.254Z,276.00
2018-08-22T04:29:35.251Z,296.00
2018-08-22T04:30:35.236Z,308.00
2018-08-22T04:31:35.252Z,328.00
2018-08-22T04:32:35.211Z,356.00
2018-08-22T04:33:35.207Z,368.00
2018-08-22T04:34:35.187Z,392.00
2018-08-22T04:35:35.180Z,408.00
2018-08-22T04:36:35.183Z,424.00
2018-08-22T04:37:35.152Z,436.00
2018-08-22T04:38:35.147Z,452.00
2018-08-22T04:39:35.131Z,468.00
2018-08-22T04:40:35.121Z,496.00
2018-08-22T04:41:35.129Z,508.00
2018-08-22T04:42:35.120Z,532.00
2018-08-22T04:43:35.085Z,548.00
2018-08-22T04:44:35.080Z,568.00
2018-08-22T04:45:35.073Z,596.00
2018-08-22T04:46:35.066Z,632.00
2018-08-22T04:47:35.049Z,660.00
2018-08-22T04:48:35.031Z,692.00
2018-08-22T04:49:35.029Z,720.00
2018-08-22T04:50:35.017Z,732.00
2018-08-22T04:51:35.021Z,752.00
2018-08-22T04:52:34.987Z,772.00
2018-08-22T04:53:34.977Z,776.00
2018-08-22T04:54:34.968Z,788.00
2018-08-22T04:55:34.958Z,796.00
2018-08-22T04:56:34.963Z,812.00
2018-08-22T04:57:34.920Z,828.00
2018-08-22T04:58:34.912Z,840.00
2018-08-22T04:59:34.906Z,864.00
2018-08-22T05:00:34.906Z,888.00
2018-08-22T05:01:34.896Z,908.00
2018-08-22T05:02:34.891Z,932.00
2018-08-22T05:03:34.855Z,952.00
2018-08-22T05:04:34.867Z,976.00
2018-08-22T05:05:34.848Z,1020.00
2018-08-22T05:06:34.844Z,1060.00
2018-08-22T05:07:34.819Z,1112.00
2018-08-22T05:08:34.831Z,1152.00
2018-08-22T05:09:34.804Z,1208.00
2018-08-22T05:10:34.784Z,1228.00
2018-08-22T05:11:34.794Z,1256.00
2018-08-22T05:12:34.757Z,1320.00
2018-08-22T05:13:34.749Z,1356.00
2018-08-22T05:14:34.736Z,1360.00
2018-08-22T05:15:34.729Z,1324.00
2018-08-22T05:16:34.726Z,1312.00
2018-08-22T05:17:34.700Z,1320.00
2018-08-22T05:18:34.692Z,1328.00
2018-08-22T05:19:34.677Z,1332.00
2018-08-22T05:20:34.677Z,1340.00
2018-08-22T05:21:34.690Z,1388.00
2018-08-22T05:22:34.643Z,1416.00
2018-08-22T05:23:34.633Z,1392.00
2018-08-22T05:24:34.620Z,1404.00
2018-08-22T05:25:34.608Z,1416.00
2018-08-22T05:26:34.609Z,1464.00
2018-08-22T05:27:34.585Z,1488.00
2018-08-22T05:28:34.585Z,1540.00
2018-08-22T05:29:34.564Z,1592.00
2018-08-22T05:30:34.550Z,1620.00
2018-08-22T05:31:34.557Z,1668.00
2018-08-22T05:32:34.528Z,1740.00
2018-08-22T05:33:34.513Z,1808.00
2018-08-22T05:34:34.512Z,1788.00
2018-08-22T05:35:34.509Z,1828.00
2018-08-22T05:36:34.493Z,1928.00
2018-08-22T05:37:34.482Z,2020.00
2018-08-22T05:38:34.458Z,2112.00
2018-08-22T05:39:34.455Z,2160.00
2018-08-22T05:40:34.472Z,2240.00
2018-08-22T05:41:34.436Z,2300.00
2018-08-22T05:42:34.413Z,2368.00
2018-08-22T05:43:34.401Z,2452.00
2018-08-22T05:44:34.402Z,2476.00
2018-08-22T05:45:34.378Z,2468.00
2018-08-22T05:46:34.383Z,2484.00
2018-08-22T05:47:34.356Z,2552.00
2018-08-22T05:48:34.345Z,2644.00
2018-08-22T05:49:34.339Z,2728.00
2018-08-22T05:50:34.324Z,2780.00
2018-08-22T05:51:34.325Z,2824.00
2018-08-22T05:52:34.301Z,2892.00
2018-08-22T05:53:34.291Z,2872.00
2018-08-22T05:54:34.284Z,2876.00
2018-08-22T05:55:34.269Z,2908.00
2018-08-22T05:56:34.269Z,2992.00
2018-08-22T05:57:34.292Z,3068.00
2018-08-22T05:58:34.240Z,3152.00
2018-08-22T05:59:34.221Z,3196.00
2018-08-22T06:00:34.220Z,3260.00
2018-08-22T06:01:34.215Z,3292.00
2018-08-22T06:02:34.188Z,3316.00
2018-08-22T06:03:34.177Z,3312.00
2018-08-22T06:04:34.165Z,3396.00
2018-08-22T06:05:34.154Z,3504.00
2018-08-22T06:06:34.257Z,3536.00
2018-08-22T06:07:34.132Z,3592.00
2018-08-22T06:08:34.152Z,3584.00
2018-08-22T06:09:34.112Z,3632.00
2018-08-22T06:10:34.104Z,3648.00
2018-08-22T06:11:34.085Z,3632.00
2018-08-22T06:12:34.106Z,3620.00
2018-08-22T06:13:34.064Z,3596.00
2018-08-22T06:14:34.053Z,3576.00
2018-08-22T06:15:34.047Z,3572.00
2018-08-22T06:16:34.033Z,3552.00
2018-08-22T06:17:34.033Z,3528.00
2018-08-22T06:18:34.007Z,3464.00
2018-08-22T06:19:34.003Z,3412.00
2018-08-22T06:20:33.985Z,3392.00
2018-08-22T06:21:33.973Z,3344.00
2018-08-22T06:22:33.978Z,3284.00
2018-08-22T06:23:33.953Z,3272.00
2018-08-22T06:24:33.961Z,3288.00
2018-08-22T06:25:34.011Z,3328.00
2018-08-22T06:26:33.939Z,3408.00
2018-08-22T06:27:33.922Z,3588.00
2018-08-22T06:28:33.900Z,3632.00
2018-08-22T06:29:33.885Z,4060.00
2018-08-22T06:30:33.875Z,3904.00
2018-08-22T06:31:33.866Z,4180.00
2018-08-22T06:32:33.868Z,4784.00
2018-08-22T06:33:33.839Z,5536.00
2018-08-22T06:34:33.836Z,5352.00
2018-08-22T06:35:33.818Z,6184.00
2018-08-22T06:36:33.807Z,7948.00
2018-08-22T06:37:33.812Z,8456.00
2018-08-22T06:38:33.786Z,8772.00
2018-08-22T06:39:33.773Z,9216.00
2018-08-22T06:40:33.764Z,9520.00
2018-08-22T06:41:33.755Z,9692.00
2018-08-22T06:42:33.756Z,9832.00
2018-08-22T06:43:33.729Z,10020.00
2018-08-22T06:44:33.716Z,10212.00
2018-08-22T06:45:33.705Z,10356.00
2018-08-22T06:46:33.696Z,10440.00
2018-08-22T06:47:33.701Z,10572.00
2018-08-22T06:48:33.674Z,10752.00
2018-08-22T06:49:33.674Z,10944.00
2018-08-22T06:50:33.648Z,10436.00
2018-08-22T06:51:33.642Z,11180.00
2018-08-22T06:52:33.661Z,11512.00
2018-08-22T06:53:33.619Z,11300.00
2018-08-22T06:54:33.610Z,11740.00
2018-08-22T06:55:33.594Z,10316.00
2018-08-22T06:56:33.585Z,8328.00
2018-08-22T06:57:33.587Z,8672.00
2018-08-22T06:58:33.569Z,10504.00
2018-08-22T06:59:33.549Z,8820.00
2018-08-22T07:00:33.538Z,9032.00
2018-08-22T07:01:33.526Z,8524.00
2018-08-22T07:02:33.530Z,10656.00
2018-08-22T07:03:33.503Z,12564.00
2018-08-22T07:04:33.500Z,12328.00
2018-08-22T07:05:33.483Z,10600.00
2018-08-22T07:06:33.469Z,10516.00
2018-08-22T07:07:33.471Z,9448.00
2018-08-22T07:08:33.452Z,8976.00
2018-08-22T07:09:33.437Z,8136.00
2018-08-22T07:10:33.425Z,9672.00
2018-08-22T07:11:33.417Z,8352.00
2018-08-22T07:12:33.414Z,8624.00
2018-08-22T07:13:33.390Z,8864.00
2018-08-22T07:14:33.380Z,8720.00
2018-08-22T07:15:33.371Z,9448.00
2018-08-22T07:16:33.357Z,8652.00
2018-08-22T07:17:33.361Z,8776.00
2018-08-22T07:18:33.338Z,10848.00
2018-08-22T07:19:33.324Z,11196.00
2018-08-22T07:20:33.315Z,9440.00
2018-08-22T07:21:33.304Z,8764.00
2018-08-22T07:22:33.302Z,9188.00
2018-08-22T07:23:33.287Z,12236.00
2018-08-22T07:24:33.307Z,9288.00
2018-08-22T07:25:33.420Z,11312.00
2018-08-22T07:26:33.248Z,9320.00
2018-08-22T07:27:33.254Z,9844.00
2018-08-22T07:28:33.226Z,14816.00
2018-08-22T07:29:33.215Z,9792.00
2018-08-22T07:30:33.204Z,13632.00
2018-08-22T07:31:33.195Z,9592.00
2018-08-22T07:32:33.200Z,9052.00
2018-08-22T07:33:33.176Z,9028.00
2018-08-22T07:34:33.157Z,9004.00
2018-08-22T07:35:33.147Z,12780.00
2018-08-22T07:36:33.135Z,10244.00
2018-08-22T07:37:33.138Z,12156.00
2018-08-22T07:38:33.113Z,13696.00
2018-08-22T07:39:33.101Z,14016.00
2018-08-22T07:40:33.094Z,11548.00
2018-08-22T07:41:33.077Z,12452.00
2018-08-22T07:42:33.080Z,10764.00
2018-08-22T07:43:33.058Z,14528.00
2018-08-22T07:44:33.047Z,14336.00
2018-08-22T07:45:33.034Z,14336.00
2018-08-22T07:46:33.023Z,14528.00
2018-08-22T07:47:33.023Z,14560.00
2018-08-22T07:48:33.063Z,14560.00
2018-08-22T07:49:33.016Z,14720.00
2018-08-22T07:50:32.978Z,15168.00
2018-08-22T07:51:32.967Z,21632.00
2018-08-22T07:52:32.974Z,19168.00
2018-08-22T07:53:32.945Z,16224.00
2018-08-22T07:54:32.939Z,15520.00
2018-08-22T07:55:32.921Z,15616.00
2018-08-22T07:56:32.931Z,15680.00
2018-08-22T07:57:32.912Z,15744.00
2018-08-22T07:58:32.888Z,15808.00
2018-08-22T07:59:32.882Z,15936.00
2018-08-22T08:00:32.867Z,15936.00
2018-08-22T08:01:32.856Z,16000.00
2018-08-22T08:02:32.857Z,16160.00
2018-08-22T08:03:32.834Z,16224.00
2018-08-22T08:04:32.827Z,16320.00
2018-08-22T08:05:32.841Z,16416.00
2018-08-22T08:06:32.816Z,16448.00
2018-08-22T08:07:32.801Z,16640.00
2018-08-22T08:08:32.813Z,16928.00
2018-08-22T08:09:32.768Z,15200.00
2018-08-22T08:10:32.753Z,13436.00
2018-08-22T08:11:32.745Z,13984.00
2018-08-22T08:12:32.738Z,14432.00
2018-08-22T08:13:32.735Z,15136.00
2018-08-22T08:14:32.714Z,19104.00
2018-08-22T08:15:32.702Z,18336.00
2018-08-22T08:16:32.694Z,20288.00
2018-08-22T08:17:32.678Z,20544.00
2018-08-22T08:18:32.721Z,21952.00
2018-08-22T08:19:32.656Z,23008.00
2018-08-22T08:20:32.648Z,22976.00
2018-08-22T08:21:32.637Z,18496.00
2018-08-22T08:22:32.627Z,22592.00
2018-08-22T08:23:32.627Z,24512.00
2018-08-22T08:24:32.602Z,26592.00
2018-08-22T08:25:32.605Z,25888.00
2018-08-22T08:26:32.604Z,25184.00
2018-08-22T08:27:32.566Z,25280.00
2018-08-22T08:28:32.577Z,25920.00
2018-08-22T08:29:32.559Z,26144.00
2018-08-22T08:30:32.567Z,25024.00
2018-08-22T08:31:32.532Z,22912.00
2018-08-22T08:32:32.514Z,21632.00
2018-08-22T08:33:32.533Z,21856.00
2018-08-22T08:34:32.487Z,25216.00
2018-08-22T08:35:32.488Z,27232.00
2018-08-22T08:36:32.470Z,27808.00
2018-08-22T08:37:32.457Z,28704.00
2018-08-22T08:38:32.476Z,34080.00
2018-08-22T08:39:32.433Z,46208.00
2018-08-22T08:40:32.424Z,57344.00
2018-08-22T08:41:32.500Z,60576.00
2018-08-22T08:42:32.402Z,62496.00
2018-08-22T08:43:32.405Z,62720.00
2018-08-22T08:44:32.379Z,62272.00
2018-08-22T08:45:32.367Z,63328.00
2018-08-22T08:46:32.673Z,66752.00
2018-08-22T08:47:32.347Z,69504.00
2018-08-22T08:48:32.350Z,68928.00
2018-08-22T08:49:32.331Z,69344.00
2018-08-22T08:50:32.310Z,70144.00
2018-08-22T08:51:32.412Z,72256.00
2018-08-22T08:52:32.320Z,75104.00
2018-08-22T08:53:32.289Z,75328.00
2018-08-22T08:54:32.399Z,76544.00
2018-08-22T08:55:32.254Z,75744.00
2018-08-22T08:56:32.241Z,76352.00
2018-08-22T08:57:32.240Z,79424.00
2018-08-22T08:58:32.233Z,80576.00
2018-08-22T08:59:32.210Z,82208.00
2018-08-22T09:00:32.201Z,84000.00
2018-08-22T09:01:32.236Z,83040.00
2018-08-22T09:02:32.177Z,81312.00
2018-08-22T09:03:32.197Z,82656.00
2018-08-22T09:04:32.413Z,84352.00
2018-08-22T09:05:32.146Z,84768.00
2018-08-22T09:06:32.207Z,84768.00
2018-08-22T09:07:32.130Z,86496.00
2018-08-22T09:08:32.122Z,86464.00
2018-08-22T09:09:32.104Z,86048.00
2018-08-22T09:10:32.091Z,85312.00
2018-08-22T09:11:32.079Z,85440.00
2018-08-22T09:12:32.068Z,89664.00
2018-08-22T09:13:32.066Z,86272.00
2018-08-22T09:14:32.045Z,83520.00
2018-08-22T09:15:32.083Z,82496.00
2018-08-22T09:16:32.063Z,81568.00
2018-08-22T09:17:32.011Z,82848.00
2018-08-22T09:18:32.009Z,88896.00
2018-08-22T09:19:31.993Z,91488.00
2018-08-22T09:20:31.978Z,89856.00
2018-08-22T09:21:32.030Z,89664.00
2018-08-22T09:22:31.957Z,77760.00
2018-08-22T09:23:31.954Z,64992.00
2018-08-22T09:24:31.977Z,63360.00
2018-08-22T09:25:31.924Z,63680.00
2018-08-22T09:26:31.914Z,63392.00
2018-08-22T09:27:31.899Z,63424.00
2018-08-22T09:28:31.898Z,62624.00
2018-08-22T09:29:31.919Z,62496.00
2018-08-22T09:30:31.867Z,62496.00
2018-08-22T09:31:31.875Z,62688.00
2018-08-22T09:32:31.844Z,62752.00
2018-08-22T09:33:31.860Z,63072.00
2018-08-22T09:34:31.824Z,63616.00
2018-08-22T09:35:31.850Z,63680.00
2018-08-22T09:36:31.846Z,64416.00
2018-08-22T09:37:31.790Z,64832.00
2018-08-22T09:38:31.792Z,64896.00
2018-08-22T09:39:31.863Z,65184.00
2018-08-22T09:40:31.786Z,65728.00
2018-08-22T09:41:31.747Z,65824.00
2018-08-22T09:42:31.733Z,65696.00
2018-08-22T09:43:31.735Z,66336.00
2018-08-22T09:44:31.713Z,66752.00
2018-08-22T09:45:31.701Z,67328.00
2018-08-22T09:46:31.725Z,66880.00
2018-08-22T09:47:31.708Z,66272.00
2018-08-22T09:48:31.674Z,66432.00
2018-08-22T09:49:31.657Z,66528.00
2018-08-22T09:50:31.645Z,65024.00
2018-08-22T09:51:31.634Z,64064.00
2018-08-22T09:52:31.624Z,60704.00
2018-08-22T09:53:31.622Z,60320.00
2018-08-22T09:54:31.631Z,61184.00
2018-08-22T09:55:31.591Z,61120.00
2018-08-22T09:56:31.580Z,57856.00
2018-08-22T09:57:31.694Z,30656.00
2018-08-22T09:58:31.592Z,8672.00
2018-08-22T09:59:31.545Z,7660.00
2018-08-22T10:00:31.538Z,7188.00
2018-08-22T10:01:31.541Z,6856.00
2018-08-22T10:02:31.510Z,6612.00
2018-08-22T10:03:31.512Z,6440.00
2018-08-22T10:04:31.489Z,6328.00
2018-08-22T10:05:31.477Z,6216.00
2018-08-22T10:06:31.628Z,6120.00
2018-08-22T10:07:31.585Z,6052.00
2018-08-22T10:08:31.459Z,5984.00
2018-08-22T10:09:31.444Z,5820.00
2018-08-22T10:10:31.424Z,5788.00
2018-08-22T10:11:31.411Z,5732.00
2018-08-22T10:12:31.401Z,5668.00
2018-08-22T10:13:31.390Z,5664.00
2018-08-22T10:14:31.393Z,5760.00
2018-08-22T10:15:31.368Z,5792.00
2018-08-22T10:16:31.358Z,5808.00
2018-08-22T10:17:31.345Z,5776.00
2018-08-22T10:18:31.336Z,5852.00
2018-08-22T10:19:31.359Z,6020.00
2018-08-22T10:20:31.313Z,6084.00
2018-08-22T10:21:31.306Z,5912.00
2018-08-22T10:22:31.294Z,5408.00
2018-08-22T10:23:31.287Z,6224.00
2018-08-22T10:24:31.286Z,6120.00
2018-08-22T10:25:31.259Z,5808.00
2018-08-22T10:26:31.265Z,5628.00
2018-08-22T10:27:31.240Z,5504.00
2018-08-22T10:28:31.229Z,5416.00
2018-08-22T10:29:31.231Z,5736.00
2018-08-22T10:30:31.207Z,5704.00
2018-08-22T10:31:31.198Z,5656.00
2018-08-22T10:32:31.227Z,5552.00
2018-08-22T10:33:31.169Z,5104.00
2018-08-22T10:34:31.175Z,5616.00
2018-08-22T10:35:31.148Z,6496.00
2018-08-22T10:36:31.151Z,6196.00
2018-08-22T10:37:31.128Z,5808.00
2018-08-22T10:38:31.139Z,5452.00
2018-08-22T10:39:31.217Z,5456.00
2018-08-22T10:40:31.100Z,5340.00
2018-08-22T10:41:31.081Z,5288.00
2018-08-22T10:42:31.080Z,5400.00
2018-08-22T10:43:31.062Z,5612.00
2018-08-22T10:44:31.127Z,5832.00
2018-08-22T10:45:31.038Z,5996.00
2018-08-22T10:46:31.031Z,6256.00
2018-08-22T10:47:31.016Z,5648.00
2018-08-22T10:48:31.004Z,5864.00
2018-08-22T10:49:31.004Z,5212.00
2018-08-22T10:50:31.047Z,4932.00
2018-08-22T10:51:30.975Z,5724.00
2018-08-22T10:52:30.961Z,6644.00
2018-08-22T10:53:30.950Z,6372.00
2018-08-22T10:54:30.951Z,6340.00
2018-08-22T10:55:30.927Z,5648.00
2018-08-22T10:56:30.918Z,5728.00
2018-08-22T10:57:30.907Z,5904.00
2018-08-22T10:58:30.896Z,6404.00
2018-08-22T10:59:30.898Z,5576.00
2018-08-22T11:00:30.872Z,5032.00
2018-08-22T11:01:30.863Z,4892.00
2018-08-22T11:02:30.858Z,4300.00
2018-08-22T11:03:30.842Z,4124.00
2018-08-22T11:04:30.840Z,4172.00
2018-08-22T11:05:30.817Z,4756.00
2018-08-22T11:06:30.808Z,4360.00
2018-08-22T11:07:30.796Z,4200.00
2018-08-22T11:08:30.787Z,4176.00
2018-08-22T11:09:30.783Z,5060.00
2018-08-22T11:10:30.761Z,5044.00
2018-08-22T11:11:30.752Z,4828.00
2018-08-22T11:12:30.740Z,5172.00
2018-08-22T11:13:30.729Z,4992.00
2018-08-22T11:14:30.729Z,5008.00
2018-08-22T11:15:30.709Z,5172.00
2018-08-22T11:16:30.704Z,5048.00
2018-08-22T11:17:30.687Z,4872.00
2018-08-22T11:18:30.674Z,4604.00
2018-08-22T11:19:30.678Z,4464.00
2018-08-22T11:20:30.656Z,4232.00
2018-08-22T11:21:30.648Z,4064.00
2018-08-22T11:22:30.723Z,3992.00
2018-08-22T11:23:30.621Z,3960.00
2018-08-22T11:24:30.625Z,3996.00
2018-08-22T11:25:30.596Z,3976.00
2018-08-22T11:26:30.584Z,4120.00
2018-08-22T11:27:30.576Z,3976.00
2018-08-22T11:28:30.568Z,3872.00
2018-08-22T11:29:30.611Z,3800.00
2018-08-22T11:30:30.543Z,3776.00
2018-08-22T11:31:30.544Z,3716.00
2018-08-22T11:32:30.520Z,3672.00
2018-08-22T11:33:30.513Z,3604.00
2018-08-22T11:34:30.564Z,3540.00
2018-08-22T11:35:30.489Z,3500.00
2018-08-22T11:36:30.500Z,3420.00
2018-08-22T11:37:30.465Z,3344.00
2018-08-22T11:38:30.455Z,3272.00
2018-08-22T11:39:30.453Z,3284.00
2018-08-22T11:40:30.433Z,3268.00
2018-08-22T11:41:30.420Z,3192.00
2018-08-22T11:42:30.415Z,3164.00
2018-08-22T11:43:30.400Z,3224.00
2018-08-22T11:44:30.404Z,3276.00
2018-08-22T11:45:30.380Z,2916.00
2018-08-22T11:46:30.367Z,2960.00
2018-08-22T11:47:30.356Z,3096.00
2018-08-22T11:48:30.346Z,3200.00
2018-08-22T11:49:30.347Z,3296.00
2018-08-22T11:50:30.328Z,3220.00
2018-08-22T11:51:30.312Z,3120.00
2018-08-22T11:52:30.303Z,3556.00
2018-08-22T11:53:30.289Z,3220.00
2018-08-22T11:54:30.290Z,3148.00
2018-08-22T11:55:30.271Z,3112.00
2018-08-22T11:56:30.257Z,2800.00
2018-08-22T11:57:30.246Z,2828.00
2018-08-22T11:58:30.235Z,3272.00
2018-08-22T11:59:30.238Z,3376.00
2018-08-22T12:00:30.214Z,3624.00
2018-08-22T12:01:30.206Z,3948.00
2018-08-22T12:02:30.197Z,3416.00
2018-08-22T12:03:30.185Z,2788.00
2018-08-22T12:04:30.187Z,2976.00
2018-08-22T12:05:30.157Z,3184.00
2018-08-22T12:06:30.150Z,3620.00
2018-08-22T12:07:30.139Z,3812.00
2018-08-22T12:08:30.125Z,4304.00
2018-08-22T12:09:30.130Z,4784.00
2018-08-22T12:10:30.110Z,5112.00
2018-08-22T12:11:30.093Z,4904.00
2018-08-22T12:12:30.083Z,4472.00
2018-08-22T12:13:30.071Z,3712.00
2018-08-22T12:14:30.084Z,3844.00
2018-08-22T12:15:30.051Z,4820.00
2018-08-22T12:16:30.039Z,5096.00
2018-08-22T12:17:30.033Z,5436.00
2018-08-22T12:18:30.015Z,5504.00
2018-08-22T12:19:30.010Z,4940.00
2018-08-22T12:20:30.008Z,4300.00
2018-08-22T12:21:29.986Z,4236.00
2018-08-22T12:22:29.971Z,4420.00
2018-08-22T12:23:30.055Z,4452.00
2018-08-22T12:24:29.950Z,4924.00
2018-08-22T12:25:29.954Z,4836.00
2018-08-22T12:26:29.928Z,4456.00
2018-08-22T12:27:29.918Z,4688.00
2018-08-22T12:28:29.910Z,3648.00
2018-08-22T12:29:29.900Z,3680.00
2018-08-22T12:30:29.895Z,4168.00
2018-08-22T12:31:29.873Z,3888.00
2018-08-22T12:32:29.865Z,3268.00
2018-08-22T12:33:29.852Z,3004.00
2018-08-22T12:34:29.840Z,3256.00
2018-08-22T12:35:29.845Z,4196.00
2018-08-22T12:36:29.823Z,4012.00
2018-08-22T12:37:29.809Z,4748.00
2018-08-22T12:38:29.796Z,5036.00
2018-08-22T12:39:29.790Z,5568.00
2018-08-22T12:40:29.786Z,4900.00
2018-08-22T12:41:29.768Z,3576.00
2018-08-22T12:42:29.754Z,3720.00
2018-08-22T12:43:29.742Z,3432.00
2018-08-22T12:44:29.734Z,3236.00
2018-08-22T12:45:29.734Z,3720.00
2018-08-22T12:46:29.708Z,3696.00
2018-08-22T12:47:29.702Z,4012.00
2018-08-22T12:48:29.689Z,4452.00
2018-08-22T12:49:29.680Z,4220.00
2018-08-22T12:50:29.741Z,2936.00
2018-08-22T12:51:29.652Z,2332.00
2018-08-22T12:52:29.641Z,2972.00
2018-08-22T12:53:29.661Z,3436.00
2018-08-22T12:54:29.622Z,3860.00
2018-08-22T12:55:29.621Z,4468.00
2018-08-22T12:56:29.600Z,4716.00
2018-08-22T12:57:29.592Z,4944.00
2018-08-22T12:58:29.577Z,5104.00
2018-08-22T12:59:29.571Z,5096.00
2018-08-22T13:00:29.570Z,5180.00
2018-08-22T13:01:29.551Z,4204.00
2018-08-22T13:02:29.535Z,3288.00
2018-08-22T13:03:29.525Z,2728.00
2018-08-22T13:04:29.559Z,2696.00
2018-08-22T13:05:29.517Z,2924.00
2018-08-22T13:06:29.489Z,3440.00
2018-08-22T13:07:29.479Z,3760.00
2018-08-22T13:08:29.467Z,3568.00
2018-08-22T13:09:29.455Z,4072.00
2018-08-22T13:10:29.457Z,4152.00
2018-08-22T13:11:29.471Z,4228.00
2018-08-22T13:12:29.424Z,4176.00
2018-08-22T13:13:29.413Z,4296.00
2018-08-22T13:14:29.401Z,4460.00
2018-08-22T13:15:29.407Z,4656.00
2018-08-22T13:16:29.382Z,4480.00
2018-08-22T13:17:29.371Z,4128.00
2018-08-22T13:18:29.359Z,4316.00
2018-08-22T13:19:29.352Z,4812.00
2018-08-22T13:20:29.351Z,5024.00
2018-08-22T13:21:29.323Z,4960.00
2018-08-22T13:22:29.313Z,4620.00
2018-08-22T13:23:29.306Z,4592.00
2018-08-22T13:24:29.292Z,4708.00
2018-08-22T13:25:29.321Z,4056.00
2018-08-22T13:26:29.272Z,3852.00
2018-08-22T13:27:29.260Z,3968.00
2018-08-22T13:28:29.253Z,3644.00
2018-08-22T13:29:29.236Z,3540.00
2018-08-22T13:30:29.309Z,3524.00
2018-08-22T13:31:29.228Z,3624.00
2018-08-22T13:32:29.209Z,3720.00
2018-08-22T13:33:29.203Z,3952.00
2018-08-22T13:34:29.182Z,4060.00
2018-08-22T13:35:29.175Z,4080.00
2018-08-22T13:36:29.199Z,4600.00
2018-08-22T13:37:29.151Z,4828.00
2018-08-22T13:38:29.137Z,4132.00
2018-08-22T13:39:29.127Z,3648.00
2018-08-22T13:40:29.127Z,3792.00
2018-08-22T13:41:29.127Z,3832.00
2018-08-22T13:42:29.093Z,3820.00
2018-08-22T13:43:29.092Z,3892.00
2018-08-22T13:44:29.078Z,4244.00
2018-08-22T13:45:29.063Z,4528.00
2018-08-22T13:46:29.060Z,4360.00
2018-08-22T13:47:29.038Z,4160.00
2018-08-22T13:48:29.037Z,4168.00
2018-08-22T13:49:29.017Z,3928.00
2018-08-22T13:50:29.011Z,3448.00
2018-08-22T13:51:29.007Z,3264.00
2018-08-22T13:52:28.992Z,3456.00
2018-08-22T13:53:28.975Z,3424.00
2018-08-22T13:54:28.969Z,3652.00
2018-08-22T13:55:28.952Z,4080.00
2018-08-22T13:56:29.023Z,4600.00
2018-08-22T13:57:28.931Z,4888.00
2018-08-22T13:58:28.918Z,4576.00
2018-08-22T13:59:28.906Z,4328.00
2018-08-22T14:00:28.896Z,4328.00
2018-08-22T14:01:29.041Z,4500.00
2018-08-22T14:02:28.877Z,4344.00
2018-08-22T14:03:28.863Z,3324.00
2018-08-22T14:04:28.853Z,2744.00
2018-08-22T14:05:28.842Z,2704.00
2018-08-22T14:06:28.853Z,2244.00
2018-08-22T14:07:28.820Z,2028.00
2018-08-22T14:08:28.812Z,1748.00
2018-08-22T14:09:28.803Z,1876.00
2018-08-22T14:10:28.789Z,2168.00
2018-08-22T14:11:28.791Z,2276.00
2018-08-22T14:12:28.765Z,2744.00
2018-08-22T14:13:28.754Z,3164.00
2018-08-22T14:14:28.744Z,3632.00
2018-08-22T14:15:28.733Z,3300.00
2018-08-22T14:16:28.743Z,2724.00
2018-08-22T14:17:28.709Z,2212.00
2018-08-22T14:18:28.702Z,1984.00
2018-08-22T14:19:28.688Z,1996.00
2018-08-22T14:20:28.682Z,2272.00
2018-08-22T14:21:28.678Z,2720.00
2018-08-22T14:22:28.746Z,2936.00
2018-08-22T14:23:28.644Z,2824.00
2018-08-22T14:24:28.634Z,2716.00
2018-08-22T14:25:28.624Z,2712.00
2018-08-22T14:26:28.610Z,2812.00
2018-08-22T14:27:28.619Z,2988.00
2018-08-22T14:28:28.593Z,3124.00
2018-08-22T14:29:28.580Z,3072.00
2018-08-22T14:30:28.576Z,3152.00
2018-08-22T14:31:28.573Z,3176.00
2018-08-22T14:32:28.558Z,3560.00
2018-08-22T14:33:28.548Z,3312.00
2018-08-22T14:34:28.524Z,3044.00
2018-08-22T14:35:28.514Z,2828.00
2018-08-22T14:36:28.505Z,2796.00
2018-08-22T14:37:28.503Z,2700.00
2018-08-22T14:38:28.489Z,2784.00
2018-08-22T14:39:28.572Z,2796.00
2018-08-22T14:40:28.457Z,2864.00
2018-08-22T14:41:28.450Z,2844.00
2018-08-22T14:42:28.452Z,3036.00
2018-08-22T14:43:28.425Z,2948.00
2018-08-22T14:44:28.418Z,2848.00
2018-08-22T14:45:28.402Z,2676.00
2018-08-22T14:46:28.393Z,2604.00
2018-08-22T14:47:28.401Z,3092.00
2018-08-22T14:48:28.372Z,3284.00
2018-08-22T14:49:28.360Z,3348.00
2018-08-22T14:50:28.351Z,3204.00
2018-08-22T14:51:28.340Z,3184.00
2018-08-22T14:52:28.341Z,3348.00
2018-08-22T14:53:28.324Z,3548.00
2018-08-22T14:54:28.308Z,3760.00
2018-08-22T14:55:28.305Z,3576.00
2018-08-22T14:56:28.451Z,3244.00
2018-08-22T14:57:28.284Z,3228.00
2018-08-22T14:58:28.262Z,2664.00
2018-08-22T14:59:28.252Z,2376.00
2018-08-22T15:00:28.243Z,1776.00
2018-08-22T15:01:28.228Z,1624.00
2018-08-22T15:02:28.326Z,1968.00
2018-08-22T15:03:28.387Z,2340.00
2018-08-22T15:04:28.194Z,2584.00
2018-08-22T15:05:28.205Z,2728.00
2018-08-22T15:06:28.177Z,2508.00
2018-08-22T15:07:28.180Z,1872.00
2018-08-22T15:08:28.154Z,1468.00
2018-08-22T15:09:28.138Z,1332.00
2018-08-22T15:10:28.145Z,1284.00
2018-08-22T15:11:28.117Z,1256.00
2018-08-22T15:12:28.120Z,1264.00
2018-08-22T15:13:28.100Z,1304.00
2018-08-22T15:14:28.088Z,1312.00
2018-08-22T15:15:28.074Z,1348.00
2018-08-22T15:16:28.064Z,1276.00
2018-08-22T15:17:28.068Z,1220.00
2018-08-22T15:18:28.043Z,1180.00
2018-08-22T15:19:28.028Z,1156.00
2018-08-22T15:20:28.025Z,1172.00
2018-08-22T15:21:28.010Z,1208.00
2018-08-22T15:22:28.014Z,1356.00
2018-08-22T15:23:27.986Z,1316.00
2018-08-22T15:24:27.975Z,1200.00
2018-08-22T15:25:27.962Z,1196.00
2018-08-22T15:26:27.990Z,1176.00
2018-08-22T15:27:27.984Z,1180.00
2018-08-22T15:28:27.930Z,1208.00
2018-08-22T15:29:27.919Z,1328.00
2018-08-22T15:30:27.908Z,1464.00
2018-08-22T15:31:27.897Z,1476.00
2018-08-22T15:32:27.900Z,1428.00
2018-08-22T15:33:27.880Z,1364.00
2018-08-22T15:34:27.867Z,1384.00
2018-08-22T15:35:27.856Z,1440.00
2018-08-22T15:36:27.868Z,1596.00
2018-08-22T15:37:27.847Z,1816.00
2018-08-22T15:38:27.820Z,1800.00
2018-08-22T15:39:27.817Z,1668.00
2018-08-22T15:40:27.803Z,1328.00
2018-08-22T15:41:27.789Z,1156.00
2018-08-22T15:42:27.793Z,1056.00
2018-08-22T15:43:27.765Z,1008.00
2018-08-22T15:44:27.757Z,984.00
2018-08-22T15:45:27.746Z,972.00
2018-08-22T15:46:27.738Z,960.00
2018-08-22T15:47:27.834Z,944.00
2018-08-22T15:48:27.714Z,928.00
2018-08-22T15:49:27.720Z,912.00
2018-08-22T15:50:27.693Z,936.00
2018-08-22T15:51:27.688Z,976.00
2018-08-22T15:52:27.678Z,956.00
2018-08-22T15:53:27.656Z,936.00
2018-08-22T15:54:27.648Z,920.00
2018-08-22T15:55:27.634Z,940.00
2018-08-22T15:56:27.629Z,948.00
2018-08-22T15:57:27.624Z,948.00
2018-08-22T15:58:27.602Z,956.00
2018-08-22T15:59:27.593Z,956.00
2018-08-22T16:00:27.581Z,960.00
2018-08-22T16:01:27.570Z,972.00
2018-08-22T16:02:27.568Z,972.00
2018-08-22T16:03:27.548Z,976.00